sensor_id;sensor_type;location;lat;lon;timestamp;P1;durP1;ratioP1;P2;durP2;ratioP2
76640;SDS011;65538;50.798;6.064;2023-03-11T00:00:00;6.77;;;1.33;;
76640;SDS011;65538;50.798;6.064;2023-03-11T00:02:25;7.10;;;2.13;;
76640;SDS011;65538;50.798;6.064;2023-03-11T00:04:50;6.57;;;1.40;;
76640;SDS011;65538;50.798;6.064;2023-03-11T00:07:16;4.87;;;1.30;;
76640;SDS011;65538;50.798;6.064;2023-03-11T00:09:41;6.40;;;2.00;;
76640;SDS011;65538;50.798;6.064;2023-03-11T00:12:06;4.47;;;1.53;;
76640;SDS011;65538;50.798;6.064;2023-03-11T00:14:31;4.53;;;1.57;;
76640;SDS011;65538;50.798;6.064;2023-03-11T00:16:57;9.53;;;1.63;;
76640;SDS011;65538;50.798;6.064;2023-03-11T00:19:22;7.87;;;2.03;;
76640;SDS011;65538;50.798;6.064;2023-03-11T00:21:47;5.40;;;1.73;;
76640;SDS011;65538;50.798;6.064;2023-03-11T00:24:12;9.33;;;2.23;;
76640;SDS011;65538;50.798;6.064;2023-03-11T00:26:37;4.67;;;1.27;;
76640;SDS011;65538;50.798;6.064;2023-03-11T00:29:03;12.37;;;1.60;;
76640;SDS011;65538;50.798;6.064;2023-03-11T00:31:28;8.13;;;1.90;;
76640;SDS011;65538;50.798;6.064;2023-03-11T00:33:53;5.83;;;1.87;;
76640;SDS011;65538;50.798;6.064;2023-03-11T00:36:27;11.13;;;2.17;;
76640;SDS011;65538;50.798;6.064;2023-03-11T00:38:55;9.10;;;1.75;;
76640;SDS011;65538;50.798;6.064;2023-03-11T00:41:20;8.25;;;1.55;;
76640;SDS011;65538;50.798;6.064;2023-03-11T00:43:45;8.00;;;1.30;;
76640;SDS011;65538;50.798;6.064;2023-03-11T00:46:11;5.90;;;1.40;;
76640;SDS011;65538;50.798;6.064;2023-03-11T00:48:36;8.03;;;1.77;;
76640;SDS011;65538;50.798;6.064;2023-03-11T00:51:01;4.45;;;1.40;;
76640;SDS011;65538;50.798;6.064;2023-03-11T00:53:27;7.85;;;2.03;;
76640;SDS011;65538;50.798;6.064;2023-03-11T00:55:52;14.07;;;2.30;;
76640;SDS011;65538;50.798;6.064;2023-03-11T00:58:17;13.43;;;1.70;;
76640;SDS011;65538;50.798;6.064;2023-03-11T01:00:43;8.40;;;1.73;;
76640;SDS011;65538;50.798;6.064;2023-03-11T01:03:08;10.53;;;1.83;;
76640;SDS011;65538;50.798;6.064;2023-03-11T01:05:33;6.30;;;1.90;;
76640;SDS011;65538;50.798;6.064;2023-03-11T01:07:59;8.30;;;2.17;;
76640;SDS011;65538;50.798;6.064;2023-03-11T01:10:25;6.07;;;2.15;;
76640;SDS011;65538;50.798;6.064;2023-03-11T01:12:50;6.10;;;2.03;;
76640;SDS011;65538;50.798;6.064;2023-03-11T01:15:20;8.73;;;2.20;;
76640;SDS011;65538;50.798;6.064;2023-03-11T01:17:46;9.43;;;2.20;;
76640;SDS011;65538;50.798;6.064;2023-03-11T01:20:11;3.83;;;1.30;;
76640;SDS011;65538;50.798;6.064;2023-03-11T01:22:36;9.60;;;2.00;;
76640;SDS011;65538;50.798;6.064;2023-03-11T01:25:02;6.93;;;1.80;;
76640;SDS011;65538;50.798;6.064;2023-03-11T01:27:27;3.22;;;1.10;;
76640;SDS011;65538;50.798;6.064;2023-03-11T01:29:53;6.00;;;2.00;;
76640;SDS011;65538;50.798;6.064;2023-03-11T01:32:18;7.37;;;2.27;;
76640;SDS011;65538;50.798;6.064;2023-03-11T01:34:43;4.27;;;1.07;;
76640;SDS011;65538;50.798;6.064;2023-03-11T01:37:08;6.00;;;2.07;;
76640;SDS011;65538;50.798;6.064;2023-03-11T01:39:33;6.00;;;2.80;;
76640;SDS011;65538;50.798;6.064;2023-03-11T01:41:59;5.75;;;1.77;;
76640;SDS011;65538;50.798;6.064;2023-03-11T01:44:24;18.87;;;2.87;;
76640;SDS011;65538;50.798;6.064;2023-03-11T01:49:19;9.10;;;2.72;;
76640;SDS011;65538;50.798;6.064;2023-03-11T01:51:45;6.47;;;1.70;;
76640;SDS011;65538;50.798;6.064;2023-03-11T01:54:13;8.30;;;2.70;;
76640;SDS011;65538;50.798;6.064;2023-03-11T01:56:40;13.63;;;2.92;;
76640;SDS011;65538;50.798;6.064;2023-03-11T01:59:10;9.63;;;3.50;;
76640;SDS011;65538;50.798;6.064;2023-03-11T02:01:36;6.43;;;2.65;;
76640;SDS011;65538;50.798;6.064;2023-03-11T02:04:04;12.10;;;3.28;;
76640;SDS011;65538;50.798;6.064;2023-03-11T02:06:29;13.03;;;3.20;;
76640;SDS011;65538;50.798;6.064;2023-03-11T02:08:56;12.45;;;2.90;;
76640;SDS011;65538;50.798;6.064;2023-03-11T02:11:21;9.87;;;3.43;;
76640;SDS011;65538;50.798;6.064;2023-03-11T02:13:49;19.20;;;3.63;;
76640;SDS011;65538;50.798;6.064;2023-03-11T02:16:15;9.85;;;3.15;;
76640;SDS011;65538;50.798;6.064;2023-03-11T02:18:40;9.70;;;3.50;;
76640;SDS011;65538;50.798;6.064;2023-03-11T02:21:16;9.10;;;3.38;;
76640;SDS011;65538;50.798;6.064;2023-03-11T02:23:48;9.48;;;3.25;;
76640;SDS011;65538;50.798;6.064;2023-03-11T02:28:40;11.93;;;3.10;;
76640;SDS011;65538;50.798;6.064;2023-03-11T02:31:06;15.65;;;3.45;;
76640;SDS011;65538;50.798;6.064;2023-03-11T02:33:31;14.23;;;3.60;;
76640;SDS011;65538;50.798;6.064;2023-03-11T02:35:58;6.38;;;2.33;;
76640;SDS011;65538;50.798;6.064;2023-03-11T02:38:23;11.33;;;2.90;;
76640;SDS011;65538;50.798;6.064;2023-03-11T02:40:50;7.07;;;2.33;;
76640;SDS011;65538;50.798;6.064;2023-03-11T02:43:17;16.55;;;3.42;;
76640;SDS011;65538;50.798;6.064;2023-03-11T02:45:43;10.25;;;2.60;;
76640;SDS011;65538;50.798;6.064;2023-03-11T02:48:09;7.03;;;2.28;;
76640;SDS011;65538;50.798;6.064;2023-03-11T02:50:35;11.68;;;2.97;;
76640;SDS011;65538;50.798;6.064;2023-03-11T02:53:01;2.88;;;1.10;;
76640;SDS011;65538;50.798;6.064;2023-03-11T02:55:26;3.53;;;1.45;;
76640;SDS011;65538;50.798;6.064;2023-03-11T02:57:51;7.77;;;2.37;;
76640;SDS011;65538;50.798;6.064;2023-03-11T03:00:17;11.80;;;3.43;;
76640;SDS011;65538;50.798;6.064;2023-03-11T03:02:43;9.98;;;2.63;;
76640;SDS011;65538;50.798;6.064;2023-03-11T03:05:08;7.93;;;3.30;;
76640;SDS011;65538;50.798;6.064;2023-03-11T03:07:34;5.65;;;1.73;;
76640;SDS011;65538;50.798;6.064;2023-03-11T03:09:59;8.27;;;2.80;;
76640;SDS011;65538;50.798;6.064;2023-03-11T03:12:24;8.23;;;2.80;;
76640;SDS011;65538;50.798;6.064;2023-03-11T03:14:49;10.57;;;3.40;;
76640;SDS011;65538;50.798;6.064;2023-03-11T03:17:14;15.07;;;4.50;;
76640;SDS011;65538;50.798;6.064;2023-03-11T03:19:40;9.27;;;3.20;;
76640;SDS011;65538;50.798;6.064;2023-03-11T03:22:05;9.00;;;3.87;;
76640;SDS011;65538;50.798;6.064;2023-03-11T03:24:30;14.00;;;2.00;;
76640;SDS011;65538;50.798;6.064;2023-03-11T03:26:56;5.17;;;1.33;;
76640;SDS011;65538;50.798;6.064;2023-03-11T03:29:21;6.93;;;2.42;;
76640;SDS011;65538;50.798;6.064;2023-03-11T03:31:46;7.13;;;3.40;;
76640;SDS011;65538;50.798;6.064;2023-03-11T03:34:12;12.63;;;3.30;;
76640;SDS011;65538;50.798;6.064;2023-03-11T03:36:37;7.47;;;2.67;;
76640;SDS011;65538;50.798;6.064;2023-03-11T03:39:02;10.27;;;3.10;;
76640;SDS011;65538;50.798;6.064;2023-03-11T03:41:27;11.80;;;2.33;;
76640;SDS011;65538;50.798;6.064;2023-03-11T03:43:53;12.00;;;4.07;;
76640;SDS011;65538;50.798;6.064;2023-03-11T03:46:18;13.00;;;3.58;;
76640;SDS011;65538;50.798;6.064;2023-03-11T03:48:44;11.15;;;3.45;;
76640;SDS011;65538;50.798;6.064;2023-03-11T03:51:10;14.37;;;3.97;;
76640;SDS011;65538;50.798;6.064;2023-03-11T03:53:36;5.50;;;3.15;;
76640;SDS011;65538;50.798;6.064;2023-03-11T03:56:02;4.15;;;1.30;;
76640;SDS011;65538;50.798;6.064;2023-03-11T03:58:27;10.50;;;2.88;;
76640;SDS011;65538;50.798;6.064;2023-03-11T04:00:55;8.23;;;2.77;;
76640;SDS011;65538;50.798;6.064;2023-03-11T04:03:21;12.40;;;3.85;;
76640;SDS011;65538;50.798;6.064;2023-03-11T04:05:46;10.20;;;3.38;;
76640;SDS011;65538;50.798;6.064;2023-03-11T04:08:11;10.97;;;3.90;;
76640;SDS011;65538;50.798;6.064;2023-03-11T04:10:37;11.03;;;3.50;;
76640;SDS011;65538;50.798;6.064;2023-03-11T04:13:02;10.93;;;3.07;;
76640;SDS011;65538;50.798;6.064;2023-03-11T04:15:27;8.83;;;3.33;;
76640;SDS011;65538;50.798;6.064;2023-03-11T04:17:52;10.53;;;3.30;;
76640;SDS011;65538;50.798;6.064;2023-03-11T04:20:18;12.00;;;3.77;;
76640;SDS011;65538;50.798;6.064;2023-03-11T04:22:43;12.10;;;3.40;;
76640;SDS011;65538;50.798;6.064;2023-03-11T04:25:08;14.67;;;3.20;;
76640;SDS011;65538;50.798;6.064;2023-03-11T04:27:33;10.97;;;3.67;;
76640;SDS011;65538;50.798;6.064;2023-03-11T04:29:58;8.67;;;3.37;;
76640;SDS011;65538;50.798;6.064;2023-03-11T04:32:24;8.03;;;3.27;;
76640;SDS011;65538;50.798;6.064;2023-03-11T04:34:49;10.10;;;3.43;;
76640;SDS011;65538;50.798;6.064;2023-03-11T04:37:14;12.20;;;3.90;;
76640;SDS011;65538;50.798;6.064;2023-03-11T04:39:40;10.00;;;3.73;;
76640;SDS011;65538;50.798;6.064;2023-03-11T04:42:05;12.90;;;5.00;;
76640;SDS011;65538;50.798;6.064;2023-03-11T04:44:30;13.07;;;3.88;;
76640;SDS011;65538;50.798;6.064;2023-03-11T04:46:56;8.50;;;3.20;;
76640;SDS011;65538;50.798;6.064;2023-03-11T04:49:21;10.30;;;4.03;;
76640;SDS011;65538;50.798;6.064;2023-03-11T04:51:46;9.30;;;3.90;;
76640;SDS011;65538;50.798;6.064;2023-03-11T04:54:11;12.17;;;4.00;;
76640;SDS011;65538;50.798;6.064;2023-03-11T04:56:36;15.00;;;3.87;;
76640;SDS011;65538;50.798;6.064;2023-03-11T04:59:02;10.33;;;3.23;;
76640;SDS011;65538;50.798;6.064;2023-03-11T05:01:27;11.17;;;3.20;;
76640;SDS011;65538;50.798;6.064;2023-03-11T05:03:52;9.07;;;3.70;;
76640;SDS011;65538;50.798;6.064;2023-03-11T05:06:17;9.37;;;3.50;;
76640;SDS011;65538;50.798;6.064;2023-03-11T05:08:42;8.47;;;3.37;;
76640;SDS011;65538;50.798;6.064;2023-03-11T05:11:08;11.77;;;4.17;;
76640;SDS011;65538;50.798;6.064;2023-03-11T05:13:33;9.43;;;4.37;;
76640;SDS011;65538;50.798;6.064;2023-03-11T05:15:58;10.18;;;4.15;;
76640;SDS011;65538;50.798;6.064;2023-03-11T05:18:24;15.43;;;4.10;;
76640;SDS011;65538;50.798;6.064;2023-03-11T05:20:49;9.67;;;3.50;;
76640;SDS011;65538;50.798;6.064;2023-03-11T05:23:14;13.03;;;4.27;;
76640;SDS011;65538;50.798;6.064;2023-03-11T05:25:39;8.33;;;3.93;;
76640;SDS011;65538;50.798;6.064;2023-03-11T05:28:04;9.93;;;3.63;;
76640;SDS011;65538;50.798;6.064;2023-03-11T05:30:30;13.90;;;4.13;;
76640;SDS011;65538;50.798;6.064;2023-03-11T05:32:55;12.17;;;4.47;;
76640;SDS011;65538;50.798;6.064;2023-03-11T05:35:20;14.47;;;4.57;;
76640;SDS011;65538;50.798;6.064;2023-03-11T05:37:46;9.70;;;3.90;;
76640;SDS011;65538;50.798;6.064;2023-03-11T05:40:13;16.60;;;4.55;;
76640;SDS011;65538;50.798;6.064;2023-03-11T05:42:39;14.07;;;4.53;;
76640;SDS011;65538;50.798;6.064;2023-03-11T05:45:05;10.45;;;4.03;;
76640;SDS011;65538;50.798;6.064;2023-03-11T05:47:31;13.73;;;4.95;;
76640;SDS011;65538;50.798;6.064;2023-03-11T05:49:56;12.63;;;4.60;;
76640;SDS011;65538;50.798;6.064;2023-03-11T05:52:21;12.27;;;4.40;;
76640;SDS011;65538;50.798;6.064;2023-03-11T05:54:50;13.40;;;4.27;;
76640;SDS011;65538;50.798;6.064;2023-03-11T05:57:16;14.30;;;4.82;;
76640;SDS011;65538;50.798;6.064;2023-03-11T05:59:41;9.82;;;4.70;;
76640;SDS011;65538;50.798;6.064;2023-03-11T06:02:06;14.53;;;4.97;;
76640;SDS011;65538;50.798;6.064;2023-03-11T06:04:32;11.47;;;4.57;;
76640;SDS011;65538;50.798;6.064;2023-03-11T06:06:57;12.03;;;5.27;;
76640;SDS011;65538;50.798;6.064;2023-03-11T06:09:22;11.83;;;5.33;;
76640;SDS011;65538;50.798;6.064;2023-03-11T06:11:47;11.57;;;4.37;;
76640;SDS011;65538;50.798;6.064;2023-03-11T06:14:13;9.67;;;4.80;;
76640;SDS011;65538;50.798;6.064;2023-03-11T06:16:39;13.02;;;4.47;;
76640;SDS011;65538;50.798;6.064;2023-03-11T06:19:04;11.18;;;4.60;;
76640;SDS011;65538;50.798;6.064;2023-03-11T06:21:29;9.27;;;4.47;;
76640;SDS011;65538;50.798;6.064;2023-03-11T06:23:55;12.98;;;4.38;;
76640;SDS011;65538;50.798;6.064;2023-03-11T06:26:20;13.70;;;4.10;;
76640;SDS011;65538;50.798;6.064;2023-03-11T06:28:47;10.15;;;3.72;;
76640;SDS011;65538;50.798;6.064;2023-03-11T06:31:16;10.63;;;4.13;;
76640;SDS011;65538;50.798;6.064;2023-03-11T06:33:43;7.65;;;2.97;;
76640;SDS011;65538;50.798;6.064;2023-03-11T06:36:09;13.57;;;4.15;;
76640;SDS011;65538;50.798;6.064;2023-03-11T06:38:34;10.35;;;4.95;;
76640;SDS011;65538;50.798;6.064;2023-03-11T06:41:00;11.20;;;3.90;;
76640;SDS011;65538;50.798;6.064;2023-03-11T06:43:25;11.52;;;3.70;;
76640;SDS011;65538;50.798;6.064;2023-03-11T06:45:50;11.13;;;3.37;;
76640;SDS011;65538;50.798;6.064;2023-03-11T06:48:16;11.80;;;3.40;;
76640;SDS011;65538;50.798;6.064;2023-03-11T06:50:41;11.57;;;3.03;;
76640;SDS011;65538;50.798;6.064;2023-03-11T06:53:06;13.50;;;3.87;;
76640;SDS011;65538;50.798;6.064;2023-03-11T06:55:32;7.67;;;3.20;;
76640;SDS011;65538;50.798;6.064;2023-03-11T06:57:57;7.25;;;3.35;;
76640;SDS011;65538;50.798;6.064;2023-03-11T07:00:22;8.87;;;3.60;;
76640;SDS011;65538;50.798;6.064;2023-03-11T07:02:47;8.97;;;3.73;;
76640;SDS011;65538;50.798;6.064;2023-03-11T07:05:13;10.03;;;4.33;;
76640;SDS011;65538;50.798;6.064;2023-03-11T07:07:38;10.40;;;3.73;;
76640;SDS011;65538;50.798;6.064;2023-03-11T07:10:04;10.07;;;4.17;;
76640;SDS011;65538;50.798;6.064;2023-03-11T07:12:29;8.50;;;3.15;;
76640;SDS011;65538;50.798;6.064;2023-03-11T07:14:55;13.93;;;4.23;;
76640;SDS011;65538;50.798;6.064;2023-03-11T07:17:20;6.90;;;3.58;;
76640;SDS011;65538;50.798;6.064;2023-03-11T07:19:45;7.30;;;3.97;;
76640;SDS011;65538;50.798;6.064;2023-03-11T07:22:10;13.77;;;4.43;;
76640;SDS011;65538;50.798;6.064;2023-03-11T07:24:36;10.33;;;4.77;;
76640;SDS011;65538;50.798;6.064;2023-03-11T07:27:01;15.03;;;4.50;;
76640;SDS011;65538;50.798;6.064;2023-03-11T07:29:26;9.27;;;3.60;;
76640;SDS011;65538;50.798;6.064;2023-03-11T07:31:51;10.43;;;3.77;;
76640;SDS011;65538;50.798;6.064;2023-03-11T07:34:16;9.17;;;3.97;;
76640;SDS011;65538;50.798;6.064;2023-03-11T07:36:42;9.13;;;2.80;;
76640;SDS011;65538;50.798;6.064;2023-03-11T07:39:07;12.53;;;4.47;;
76640;SDS011;65538;50.798;6.064;2023-03-11T07:41:34;10.60;;;4.30;;
76640;SDS011;65538;50.798;6.064;2023-03-11T07:44:00;16.25;;;5.03;;
76640;SDS011;65538;50.798;6.064;2023-03-11T07:46:26;10.95;;;4.57;;
76640;SDS011;65538;50.798;6.064;2023-03-11T07:48:52;10.32;;;4.28;;
76640;SDS011;65538;50.798;6.064;2023-03-11T07:51:22;10.45;;;4.80;;
76640;SDS011;65538;50.798;6.064;2023-03-11T07:53:48;11.00;;;4.43;;
76640;SDS011;65538;50.798;6.064;2023-03-11T07:56:17;11.32;;;3.75;;
76640;SDS011;65538;50.798;6.064;2023-03-11T07:58:43;12.10;;;4.63;;
76640;SDS011;65538;50.798;6.064;2023-03-11T08:01:13;7.43;;;3.50;;
76640;SDS011;65538;50.798;6.064;2023-03-11T08:03:40;9.10;;;3.72;;
76640;SDS011;65538;50.798;6.064;2023-03-11T08:06:12;8.70;;;3.28;;
76640;SDS011;65538;50.798;6.064;2023-03-11T08:08:38;9.40;;;3.70;;
76640;SDS011;65538;50.798;6.064;2023-03-11T08:11:03;14.37;;;4.43;;
76640;SDS011;65538;50.798;6.064;2023-03-11T08:13:28;11.40;;;3.97;;
76640;SDS011;65538;50.798;6.064;2023-03-11T08:15:54;9.50;;;3.80;;
76640;SDS011;65538;50.798;6.064;2023-03-11T08:18:19;11.00;;;3.23;;
76640;SDS011;65538;50.798;6.064;2023-03-11T08:20:44;19.73;;;6.83;;
76640;SDS011;65538;50.798;6.064;2023-03-11T08:23:09;9.63;;;4.07;;
76640;SDS011;65538;50.798;6.064;2023-03-11T08:25:37;11.13;;;4.57;;
76640;SDS011;65538;50.798;6.064;2023-03-11T08:28:02;16.63;;;3.95;;
76640;SDS011;65538;50.798;6.064;2023-03-11T08:30:27;14.03;;;3.50;;
76640;SDS011;65538;50.798;6.064;2023-03-11T08:32:52;11.17;;;3.97;;
76640;SDS011;65538;50.798;6.064;2023-03-11T08:35:18;7.37;;;3.80;;
76640;SDS011;65538;50.798;6.064;2023-03-11T08:37:43;8.37;;;3.00;;
76640;SDS011;65538;50.798;6.064;2023-03-11T08:40:08;8.03;;;4.80;;
76640;SDS011;65538;50.798;6.064;2023-03-11T08:42:34;12.20;;;4.07;;
76640;SDS011;65538;50.798;6.064;2023-03-11T08:44:59;11.13;;;3.40;;
76640;SDS011;65538;50.798;6.064;2023-03-11T08:47:25;11.07;;;4.23;;
76640;SDS011;65538;50.798;6.064;2023-03-11T08:49:50;10.70;;;4.00;;
76640;SDS011;65538;50.798;6.064;2023-03-11T08:52:15;12.90;;;4.20;;
76640;SDS011;65538;50.798;6.064;2023-03-11T08:54:40;11.77;;;3.93;;
76640;SDS011;65538;50.798;6.064;2023-03-11T08:57:06;10.68;;;4.07;;
76640;SDS011;65538;50.798;6.064;2023-03-11T08:59:31;9.90;;;2.93;;
76640;SDS011;65538;50.798;6.064;2023-03-11T09:01:57;6.97;;;2.70;;
76640;SDS011;65538;50.798;6.064;2023-03-11T09:04:22;5.37;;;2.60;;
76640;SDS011;65538;50.798;6.064;2023-03-11T09:06:47;6.03;;;1.83;;
76640;SDS011;65538;50.798;6.064;2023-03-11T09:09:16;7.22;;;2.13;;
76640;SDS011;65538;50.798;6.064;2023-03-11T09:11:44;10.48;;;2.35;;
76640;SDS011;65538;50.798;6.064;2023-03-11T09:14:09;11.80;;;3.20;;
76640;SDS011;65538;50.798;6.064;2023-03-11T09:16:34;6.80;;;2.50;;
76640;SDS011;65538;50.798;6.064;2023-03-11T09:18:59;9.40;;;1.97;;
76640;SDS011;65538;50.798;6.064;2023-03-11T09:21:27;6.60;;;2.13;;
76640;SDS011;65538;50.798;6.064;2023-03-11T09:23:53;10.73;;;2.77;;
76640;SDS011;65538;50.798;6.064;2023-03-11T09:26:18;5.77;;;1.93;;
76640;SDS011;65538;50.798;6.064;2023-03-11T09:28:43;7.00;;;2.13;;
76640;SDS011;65538;50.798;6.064;2023-03-11T09:31:12;3.83;;;0.88;;
76640;SDS011;65538;50.798;6.064;2023-03-11T09:33:39;3.75;;;1.27;;
76640;SDS011;65538;50.798;6.064;2023-03-11T09:36:04;9.98;;;1.88;;
76640;SDS011;65538;50.798;6.064;2023-03-11T09:38:30;10.18;;;2.03;;
76640;SDS011;65538;50.798;6.064;2023-03-11T09:45:52;3.92;;;1.30;;
76640;SDS011;65538;50.798;6.064;2023-03-11T09:48:22;3.58;;;1.45;;
76640;SDS011;65538;50.798;6.064;2023-03-11T09:50:58;4.80;;;2.17;;
76640;SDS011;65538;50.798;6.064;2023-03-11T09:53:36;5.03;;;1.50;;
76640;SDS011;65538;50.798;6.064;2023-03-11T09:56:05;7.63;;;2.35;;
76640;SDS011;65538;50.798;6.064;2023-03-11T10:01:05;5.95;;;2.50;;
76640;SDS011;65538;50.798;6.064;2023-03-11T10:03:38;7.10;;;1.90;;
76640;SDS011;65538;50.798;6.064;2023-03-11T10:06:14;1.80;;;0.85;;
76640;SDS011;65538;50.798;6.064;2023-03-11T10:08:44;6.13;;;1.80;;
76640;SDS011;65538;50.798;6.064;2023-03-11T10:13:58;4.82;;;1.42;;
76640;SDS011;65538;50.798;6.064;2023-03-11T10:19:08;3.28;;;1.30;;
76640;SDS011;65538;50.798;6.064;2023-03-11T10:24:51;4.05;;;1.17;;
76640;SDS011;65538;50.798;6.064;2023-03-11T10:27:20;6.40;;;1.20;;
76640;SDS011;65538;50.798;6.064;2023-03-11T10:37:31;7.10;;;1.90;;
76640;SDS011;65538;50.798;6.064;2023-03-11T10:40:04;6.28;;;1.45;;
76640;SDS011;65538;50.798;6.064;2023-03-11T10:42:53;4.30;;;1.52;;
76640;SDS011;65538;50.798;6.064;2023-03-11T10:45:32;3.33;;;1.42;;
76640;SDS011;65538;50.798;6.064;2023-03-11T10:48:12;5.15;;;1.73;;
76640;SDS011;65538;50.798;6.064;2023-03-11T10:53:25;4.00;;;1.52;;
76640;SDS011;65538;50.798;6.064;2023-03-11T10:55:52;4.25;;;1.63;;
76640;SDS011;65538;50.798;6.064;2023-03-11T10:58:19;7.68;;;1.35;;
76640;SDS011;65538;50.798;6.064;2023-03-11T11:00:45;3.70;;;1.33;;
76640;SDS011;65538;50.798;6.064;2023-03-11T11:03:22;5.63;;;1.40;;
76640;SDS011;65538;50.798;6.064;2023-03-11T11:12:05;3.35;;;1.40;;
76640;SDS011;65538;50.798;6.064;2023-03-11T11:14:54;3.85;;;1.30;;
76640;SDS011;65538;50.798;6.064;2023-03-11T11:17:33;4.45;;;1.27;;
76640;SDS011;65538;50.798;6.064;2023-03-11T11:20:18;3.78;;;1.40;;
76640;SDS011;65538;50.798;6.064;2023-03-11T11:25:54;5.05;;;1.60;;
76640;SDS011;65538;50.798;6.064;2023-03-11T11:28:20;2.60;;;1.30;;
76640;SDS011;65538;50.798;6.064;2023-03-11T11:30:54;4.10;;;1.25;;
76640;SDS011;65538;50.798;6.064;2023-03-11T11:33:25;7.47;;;1.70;;
76640;SDS011;65538;50.798;6.064;2023-03-11T11:35:51;5.57;;;1.45;;
76640;SDS011;65538;50.798;6.064;2023-03-11T11:38:17;4.05;;;1.80;;
76640;SDS011;65538;50.798;6.064;2023-03-11T11:40:45;4.57;;;1.45;;
76640;SDS011;65538;50.798;6.064;2023-03-11T11:43:13;3.63;;;1.30;;
76640;SDS011;65538;50.798;6.064;2023-03-11T11:45:41;4.18;;;0.98;;
76640;SDS011;65538;50.798;6.064;2023-03-11T11:48:13;6.50;;;1.60;;
76640;SDS011;65538;50.798;6.064;2023-03-11T11:50:42;5.10;;;1.30;;
76640;SDS011;65538;50.798;6.064;2023-03-11T11:53:14;7.50;;;1.52;;
76640;SDS011;65538;50.798;6.064;2023-03-11T11:55:43;3.38;;;1.45;;
76640;SDS011;65538;50.798;6.064;2023-03-11T11:58:11;3.28;;;1.40;;
76640;SDS011;65538;50.798;6.064;2023-03-11T12:00:40;6.00;;;1.60;;
76640;SDS011;65538;50.798;6.064;2023-03-11T12:05:35;3.13;;;1.25;;
76640;SDS011;65538;50.798;6.064;2023-03-11T12:08:09;2.03;;;0.82;;
76640;SDS011;65538;50.798;6.064;2023-03-11T12:10:53;3.45;;;0.93;;
76640;SDS011;65538;50.798;6.064;2023-03-11T12:13:42;2.75;;;1.15;;
76640;SDS011;65538;50.798;6.064;2023-03-11T12:16:17;3.15;;;1.13;;
76640;SDS011;65538;50.798;6.064;2023-03-11T12:19:06;1.80;;;0.70;;
76640;SDS011;65538;50.798;6.064;2023-03-11T12:26:37;4.47;;;1.23;;
76640;SDS011;65538;50.798;6.064;2023-03-11T12:32:05;5.75;;;1.52;;
76640;SDS011;65538;50.798;6.064;2023-03-11T12:34:32;5.45;;;1.63;;
76640;SDS011;65538;50.798;6.064;2023-03-11T12:36:58;9.45;;;1.70;;
76640;SDS011;65538;50.798;6.064;2023-03-11T12:39:28;5.30;;;1.33;;
76640;SDS011;65538;50.798;6.064;2023-03-11T12:42:16;6.55;;;1.58;;
76640;SDS011;65538;50.798;6.064;2023-03-11T12:44:40;4.32;;;1.33;;
76640;SDS011;65538;50.798;6.064;2023-03-11T12:47:21;4.67;;;1.30;;
76640;SDS011;65538;50.798;6.064;2023-03-11T12:49:51;4.18;;;1.10;;
76640;SDS011;65538;50.798;6.064;2023-03-11T12:52:22;5.97;;;1.33;;
76640;SDS011;65538;50.798;6.064;2023-03-11T12:55:22;2.97;;;0.90;;
76640;SDS011;65538;50.798;6.064;2023-03-11T12:57:39;3.13;;;1.10;;
76640;SDS011;65538;50.798;6.064;2023-03-11T13:13:00;6.07;;;1.23;;
76640;SDS011;65538;50.798;6.064;2023-03-11T13:15:27;3.30;;;1.40;;
76640;SDS011;65538;50.798;6.064;2023-03-11T13:18:17;4.57;;;1.50;;
76640;SDS011;65538;50.798;6.064;2023-03-11T13:20:48;10.88;;;1.15;;
76640;SDS011;65538;50.798;6.064;2023-03-11T13:33:47;4.15;;;1.25;;
76640;SDS011;65538;50.798;6.064;2023-03-11T13:38:41;5.10;;;1.43;;
76640;SDS011;65538;50.798;6.064;2023-03-11T13:41:17;2.97;;;1.30;;
76640;SDS011;65538;50.798;6.064;2023-03-11T13:43:44;6.15;;;1.83;;
76640;SDS011;65538;50.798;6.064;2023-03-11T13:46:30;3.45;;;1.33;;
76640;SDS011;65538;50.798;6.064;2023-03-11T13:49:01;4.15;;;1.30;;
76640;SDS011;65538;50.798;6.064;2023-03-11T13:51:34;4.60;;;1.25;;
76640;SDS011;65538;50.798;6.064;2023-03-11T13:54:18;4.57;;;1.45;;
76640;SDS011;65538;50.798;6.064;2023-03-11T13:56:47;2.15;;;1.00;;
76640;SDS011;65538;50.798;6.064;2023-03-11T13:59:28;5.18;;;1.42;;
76640;SDS011;65538;50.798;6.064;2023-03-11T14:01:55;4.38;;;0.88;;
76640;SDS011;65538;50.798;6.064;2023-03-11T14:04:25;2.92;;;1.02;;
76640;SDS011;65538;50.798;6.064;2023-03-11T14:06:51;4.85;;;0.95;;
76640;SDS011;65538;50.798;6.064;2023-03-11T14:09:21;1.58;;;0.50;;
76640;SDS011;65538;50.798;6.064;2023-03-11T14:11:46;2.70;;;1.10;;
76640;SDS011;65538;50.798;6.064;2023-03-11T14:14:38;6.35;;;1.40;;
76640;SDS011;65538;50.798;6.064;2023-03-11T14:17:07;3.53;;;1.05;;
76640;SDS011;65538;50.798;6.064;2023-03-11T14:19:35;8.48;;;1.25;;
76640;SDS011;65538;50.798;6.064;2023-03-11T14:22:07;4.25;;;1.23;;
76640;SDS011;65538;50.798;6.064;2023-03-11T14:24:32;2.95;;;1.40;;
76640;SDS011;65538;50.798;6.064;2023-03-11T14:26:59;3.25;;;0.93;;
76640;SDS011;65538;50.798;6.064;2023-03-11T14:29:32;6.22;;;1.20;;
76640;SDS011;65538;50.798;6.064;2023-03-11T14:34:44;4.30;;;1.13;;
76640;SDS011;65538;50.798;6.064;2023-03-11T14:37:19;5.07;;;1.30;;
76640;SDS011;65538;50.798;6.064;2023-03-11T14:39:47;9.07;;;0.90;;
76640;SDS011;65538;50.798;6.064;2023-03-11T14:42:17;4.18;;;1.08;;
76640;SDS011;65538;50.798;6.064;2023-03-11T14:44:54;3.72;;;1.00;;
76640;SDS011;65538;50.798;6.064;2023-03-11T14:47:32;4.95;;;1.33;;
76640;SDS011;65538;50.798;6.064;2023-03-11T14:50:01;5.90;;;1.30;;
76640;SDS011;65538;50.798;6.064;2023-03-11T14:52:32;6.65;;;1.17;;
76640;SDS011;65538;50.798;6.064;2023-03-11T14:54:59;8.10;;;1.73;;
76640;SDS011;65538;50.798;6.064;2023-03-11T14:57:34;7.32;;;1.13;;
76640;SDS011;65538;50.798;6.064;2023-03-11T15:00:01;4.47;;;1.23;;
76640;SDS011;65538;50.798;6.064;2023-03-11T15:02:37;3.10;;;1.20;;
76640;SDS011;65538;50.798;6.064;2023-03-11T15:05:15;6.30;;;1.10;;
76640;SDS011;65538;50.798;6.064;2023-03-11T15:07:42;3.20;;;1.15;;
76640;SDS011;65538;50.798;6.064;2023-03-11T15:10:10;3.60;;;1.42;;
76640;SDS011;65538;50.798;6.064;2023-03-11T15:12:38;4.75;;;1.45;;
76640;SDS011;65538;50.798;6.064;2023-03-11T15:15:19;3.03;;;1.20;;
76640;SDS011;65538;50.798;6.064;2023-03-11T15:17:50;3.92;;;1.52;;
76640;SDS011;65538;50.798;6.064;2023-03-11T15:20:26;4.53;;;1.40;;
76640;SDS011;65538;50.798;6.064;2023-03-11T15:23:03;3.40;;;1.40;;
76640;SDS011;65538;50.798;6.064;2023-03-11T15:25:30;4.28;;;1.80;;
76640;SDS011;65538;50.798;6.064;2023-03-11T15:27:57;5.28;;;1.40;;
76640;SDS011;65538;50.798;6.064;2023-03-11T15:30:23;5.05;;;1.33;;
76640;SDS011;65538;50.798;6.064;2023-03-11T15:32:49;3.50;;;1.30;;
76640;SDS011;65538;50.798;6.064;2023-03-11T15:37:40;7.77;;;1.67;;
76640;SDS011;65538;50.798;6.064;2023-03-11T15:45:38;4.30;;;1.52;;
76640;SDS011;65538;50.798;6.064;2023-03-11T15:48:08;4.63;;;1.75;;
76640;SDS011;65538;50.798;6.064;2023-03-11T15:50:34;4.70;;;1.70;;
76640;SDS011;65538;50.798;6.064;2023-03-11T15:53:00;5.50;;;1.63;;
76640;SDS011;65538;50.798;6.064;2023-03-11T15:55:25;6.13;;;1.80;;
76640;SDS011;65538;50.798;6.064;2023-03-11T15:57:53;3.45;;;1.58;;
76640;SDS011;65538;50.798;6.064;2023-03-11T16:00:24;5.68;;;2.17;;
76640;SDS011;65538;50.798;6.064;2023-03-11T16:02:49;4.60;;;1.60;;
76640;SDS011;65538;50.798;6.064;2023-03-11T16:05:16;4.10;;;1.70;;
76640;SDS011;65538;50.798;6.064;2023-03-11T16:07:41;4.45;;;1.90;;
76640;SDS011;65538;50.798;6.064;2023-03-11T16:10:07;6.88;;;1.83;;
76640;SDS011;65538;50.798;6.064;2023-03-11T16:12:33;6.20;;;1.88;;